createdAt,value
2022-09-03T00:01:55.378Z,63291.66
2022-09-03T00:04:32.706Z,63291.66
2022-09-03T00:07:07.928Z,63291.66
2022-09-03T00:09:42.580Z,63291.66
2022-09-03T00:12:14.821Z,63291.66
2022-09-03T00:14:51.017Z,63291.66
2022-09-03T00:17:24.104Z,63291.66
2022-09-03T00:19:57.216Z,63291.66
2022-09-03T00:22:32.646Z,63291.66
2022-09-03T00:25:04.280Z,63291.66
2022-09-03T00:27:38.281Z,63291.66
2022-09-03T00:30:11.381Z,63291.66
2022-09-03T00:32:49.575Z,63291.66
2022-09-03T00:35:25.038Z,63291.66
2022-09-03T00:37:56.368Z,63291.66
2022-09-03T00:40:46.892Z,63291.66
2022-09-03T00:43:26.519Z,63291.66
2022-09-03T00:46:07.334Z,63291.66
2022-09-03T00:48:49.793Z,63291.66
2022-09-03T00:51:29.568Z,63291.66
2022-09-03T00:54:07.693Z,63291.66
2022-09-03T00:56:44.967Z,63291.66
2022-09-03T00:59:26.166Z,63291.66
2022-09-03T01:02:09.547Z,63291.66
2022-09-03T01:04:49.375Z,63291.66
2022-09-03T01:07:33.221Z,63291.66
2022-09-03T01:10:15.501Z,63291.66
2022-09-03T01:12:54.151Z,63291.66
2022-09-03T01:15:31.080Z,63291.66
2022-09-03T01:18:23.581Z,63291.66
2022-09-03T01:21:05.930Z,63291.66
2022-09-03T01:23:51.628Z,63291.66
2022-09-03T01:26:32.900Z,63291.66
2022-09-03T01:29:12.134Z,63291.66
2022-09-03T01:31:52.022Z,63291.66
2022-09-03T01:34:34.603Z,63291.66
2022-09-03T01:37:15.880Z,63291.66
2022-09-03T01:39:53.504Z,63291.66
2022-09-03T01:42:31.226Z,63291.66
2022-09-03T01:45:29.322Z,63291.66
2022-09-03T01:48:12.121Z,63291.66
2022-09-03T01:50:50.004Z,63291.66
2022-09-03T01:53:32.984Z,63291.66
2022-09-03T01:56:21.281Z,63291.66
2022-09-03T01:58:55.278Z,63291.66
2022-09-03T02:01:30.898Z,63291.66
2022-09-03T02:04:01.054Z,63291.66
2022-09-03T02:06:31.978Z,63291.66
2022-09-03T02:09:00.929Z,63291.66
2022-09-03T02:11:30.447Z,63291.66
2022-09-03T02:14:00.173Z,63291.66
2022-09-03T02:16:35.491Z,63291.66
2022-09-03T02:19:06.848Z,63291.66
2022-09-03T02:21:38.009Z,63291.66
2022-09-03T02:24:08.942Z,63291.66
2022-09-03T02:26:37.758Z,63291.66
2022-09-03T02:29:06.774Z,63291.66
2022-09-03T02:31:36.656Z,63291.66
2022-09-03T02:34:05.296Z,63291.66
2022-09-03T02:36:35.725Z,63291.66
2022-09-03T02:39:04.641Z,63291.66
2022-09-03T02:41:33.762Z,63291.66
2022-09-03T02:44:07.842Z,63291.66
2022-09-03T02:46:42.501Z,63291.66
2022-09-03T02:49:11.379Z,63291.66
2022-09-03T02:51:42.590Z,63291.66
2022-09-03T02:54:11.996Z,63291.66
2022-09-03T02:56:40.801Z,63291.66
2022-09-03T02:59:11.071Z,63291.66
2022-09-03T03:01:41.933Z,63291.66
2022-09-03T03:04:10.439Z,63291.66
2022-09-03T03:06:41.217Z,63291.66
2022-09-03T03:09:09.625Z,63291.66
2022-09-03T03:11:38.023Z,63291.66
2022-09-03T03:14:06.428Z,63291.66
2022-09-03T03:20:17.019Z,63291.66
2022-09-03T03:22:45.420Z,63291.66
2022-09-03T03:25:13.903Z,63291.66
2022-09-03T03:27:42.441Z,63291.66
2022-09-03T03:30:12.537Z,63291.66
2022-09-03T03:32:41.198Z,63291.66
2022-09-03T03:35:12.107Z,63291.66
2022-09-03T03:37:42.117Z,63291.66
2022-09-03T03:40:11.580Z,63291.66
2022-09-03T03:42:40.370Z,63291.66
2022-09-03T03:45:10.363Z,63291.66
2022-09-03T03:47:39.357Z,63291.66
2022-09-03T03:50:08.569Z,63291.66
2022-09-03T03:52:36.958Z,63291.66
2022-09-03T03:55:08.134Z,63291.66
2022-09-03T03:57:36.805Z,63291.66
2022-09-03T04:00:06.446Z,63291.66
2022-09-03T04:02:39.026Z,63291.66
2022-09-03T04:05:08.419Z,63291.66
2022-09-03T04:07:36.932Z,63291.66
2022-09-03T04:10:07.958Z,63291.66
2022-09-03T04:12:36.341Z,63291.66
2022-09-03T04:15:05.493Z,63291.66
2022-09-03T04:17:33.873Z,63291.66
2022-09-03T04:20:02.280Z,63291.66
2022-09-03T04:22:30.891Z,63291.66
2022-09-03T04:24:59.355Z,63291.66
2022-09-03T04:27:29.164Z,63291.66
2022-09-03T04:29:57.635Z,63291.66
2022-09-03T04:32:43.523Z,63291.66
2022-09-03T04:35:12.022Z,63291.66
2022-09-03T04:37:40.407Z,63291.66
2022-09-03T04:40:09.818Z,63291.66
2022-09-03T04:42:39.636Z,63291.66
2022-09-03T04:45:09.528Z,63291.66
2022-09-03T04:47:38.258Z,63291.66
2022-09-03T04:50:07.221Z,63291.66
2022-09-03T04:52:35.603Z,63291.66
2022-09-03T04:55:04.017Z,63291.66
2022-09-03T04:57:35.849Z,63291.66
2022-09-03T05:00:10.572Z,63291.66
2022-09-03T05:02:39.052Z,63291.66
2022-09-03T05:05:07.835Z,63291.66
2022-09-03T05:07:38.900Z,63291.66
2022-09-03T05:10:12.666Z,63291.66
2022-09-03T05:12:57.074Z,63291.66
2022-09-03T05:15:27.100Z,63291.66
2022-09-03T05:18:02.246Z,63291.66
2022-09-03T05:20:32.890Z,63291.66
2022-09-03T05:23:03.687Z,63291.66
2022-09-03T05:25:33.546Z,63291.66
2022-09-03T05:28:03.136Z,63291.66
2022-09-03T05:30:33.055Z,63291.66
2022-09-03T05:33:01.460Z,63291.66
2022-09-03T05:35:30.414Z,63291.66
2022-09-03T05:37:59.751Z,63291.66
2022-09-03T05:40:28.281Z,63291.66
2022-09-03T05:42:59.243Z,63291.66
2022-09-03T05:45:28.148Z,63291.66
2022-09-03T05:48:01.062Z,63291.66
2022-09-03T05:50:30.332Z,63291.66
2022-09-03T06:04:49.888Z,100495.44
2022-09-03T06:07:18.432Z,100490.69
2022-09-03T06:09:46.798Z,100491.72
2022-09-03T06:12:15.290Z,100494.88
2022-09-03T06:14:43.988Z,100491.78
2022-09-03T06:17:13.161Z,100493.69
2022-09-03T06:19:42.485Z,100481.47
2022-09-03T06:22:12.626Z,100492.69
2022-09-03T06:24:41.221Z,100492.63
2022-09-03T06:27:09.743Z,100491.78
2022-09-03T06:29:40.115Z,100502.31
2022-09-03T06:32:08.604Z,100497.75
2022-09-03T06:34:36.968Z,100504.13
2022-09-03T06:37:05.526Z,100504.50
2022-09-03T06:39:35.558Z,100498.59
2022-09-03T06:42:03.918Z,100510.25
2022-09-03T06:44:32.584Z,100508.47
2022-09-03T06:47:01.687Z,100508.63
2022-09-03T06:49:32.121Z,100511.13
2022-09-03T06:52:00.484Z,100521.81
2022-09-03T06:54:28.893Z,100514.66
2022-09-03T06:56:58.896Z,100515.81
2022-09-03T06:59:28.694Z,100520.81
2022-09-03T07:05:11.818Z,100515.16
2022-09-03T07:07:40.286Z,100524.69
2022-09-03T07:10:14.156Z,100523.00
2022-09-03T07:12:49.060Z,100514.97
2022-09-03T07:15:17.643Z,100519.50
2022-09-03T07:17:46.024Z,100510.94
2022-09-03T07:20:14.465Z,100511.41
2022-09-03T07:22:43.138Z,100507.47
2022-09-03T07:25:11.789Z,100497.66
2022-09-03T07:27:40.174Z,100511.38
2022-09-03T07:30:11.935Z,100503.13
2022-09-03T07:32:41.148Z,100512.34
2022-09-03T07:35:10.110Z,100499.31
2022-09-03T07:37:39.098Z,100509.88
2022-09-03T07:40:08.553Z,100506.69
2022-09-03T07:42:38.663Z,100507.75
2022-09-03T07:45:11.053Z,100509.88
2022-09-03T07:47:41.116Z,100506.91
2022-09-03T07:50:10.147Z,100509.88
2022-09-03T07:52:38.536Z,100514.13
2022-09-03T07:55:08.132Z,100511.97
2022-09-03T07:57:36.558Z,100513.81
2022-09-03T08:03:49.004Z,100516.41
2022-09-03T08:06:20.751Z,100506.59
2022-09-03T08:12:29.599Z,100516.75
2022-09-03T08:14:58.610Z,100516.50
2022-09-03T08:17:27.019Z,100514.78
2022-09-03T08:19:57.715Z,100506.91
2022-09-03T08:22:26.856Z,100501.63
2022-09-03T08:24:55.958Z,100509.06
2022-09-03T08:27:25.930Z,100515.22
2022-09-03T08:29:54.319Z,100503.03
2022-09-03T08:32:23.218Z,100503.22
2022-09-03T08:34:52.522Z,100496.47
2022-09-03T08:37:29.420Z,100492.47
2022-09-03T08:39:57.839Z,100497.53
2022-09-03T08:42:41.420Z,100499.00
2022-09-03T08:45:17.145Z,100505.53
2022-09-03T08:47:53.837Z,63291.66
2022-09-03T08:50:26.936Z,63291.66
2022-09-03T08:53:02.385Z,63291.66
2022-09-03T08:55:42.903Z,63291.66
2022-09-03T09:02:07.358Z,63291.66
2022-09-03T09:04:53.369Z,63291.66
2022-09-03T09:07:30.988Z,63291.66
2022-09-03T09:10:11.990Z,63291.66
2022-09-03T09:12:49.536Z,63291.66
2022-09-03T09:15:31.444Z,63291.66
2022-09-03T09:18:52.416Z,63291.66
2022-09-03T09:21:27.712Z,63291.66
2022-09-03T09:24:02.227Z,63291.66
2022-09-03T09:26:33.362Z,63291.66
2022-09-03T09:29:06.928Z,63291.66
2022-09-03T09:31:39.437Z,63291.66
2022-09-03T09:34:09.646Z,63291.66
2022-09-03T09:36:44.437Z,63291.66
2022-09-03T09:39:16.220Z,63291.66
2022-09-03T09:41:59.249Z,63291.66
2022-09-03T09:45:05.073Z,63291.66
2022-09-03T09:47:40.065Z,63291.66
2022-09-03T09:50:25.001Z,63291.66
2022-09-03T09:53:08.473Z,63291.66
2022-09-03T09:55:39.274Z,63291.66
2022-09-03T09:58:14.564Z,63291.66
2022-09-03T10:00:43.181Z,63291.66
2022-09-03T10:03:13.981Z,63291.66
2022-09-03T10:05:44.110Z,63291.66
2022-09-03T10:08:22.428Z,63291.66
2022-09-03T10:10:52.455Z,63291.66
2022-09-03T10:13:28.625Z,63291.66
2022-09-03T10:16:04.078Z,63291.66
2022-09-03T10:18:43.706Z,63291.66
2022-09-03T10:21:15.578Z,63291.66
2022-09-03T10:23:56.840Z,63291.66
2022-09-03T10:26:30.627Z,63291.66
2022-09-03T10:29:05.981Z,63291.66
2022-09-03T10:31:44.595Z,63291.66
2022-09-03T10:34:21.013Z,63291.66
2022-09-03T10:36:54.567Z,63291.66
2022-09-03T10:39:27.415Z,63291.66
2022-09-03T10:42:08.550Z,63291.66
2022-09-03T10:45:02.004Z,63291.66
2022-09-03T10:47:42.554Z,63291.66
2022-09-03T10:50:17.737Z,63291.66
2022-09-03T10:53:09.184Z,63291.66
2022-09-03T10:55:45.864Z,63291.66
2022-09-03T10:58:35.151Z,63291.66
2022-09-03T11:01:11.957Z,63291.66
2022-09-03T11:04:38.138Z,63291.66
2022-09-03T11:07:09.644Z,63291.66
2022-09-03T11:10:47.658Z,63291.66
2022-09-03T11:13:20.427Z,63291.66
2022-09-03T11:15:53.570Z,63291.66
2022-09-03T11:18:29.298Z,63291.66
2022-09-03T11:21:02.306Z,63291.66
2022-09-03T11:23:36.493Z,63291.66
2022-09-03T11:26:12.897Z,63291.66
2022-09-03T11:28:46.674Z,63291.66
2022-09-03T11:31:22.212Z,63291.66
2022-09-03T11:34:56.516Z,63291.66
2022-09-03T11:37:32.044Z,63291.66
2022-09-03T11:40:06.160Z,63291.66
2022-09-03T11:42:38.589Z,63291.66
2022-09-03T11:45:36.757Z,63291.66
2022-09-03T11:48:19.450Z,63291.66
2022-09-03T11:50:55.758Z,63291.66
2022-09-03T11:53:30.331Z,63291.66
2022-09-03T11:56:04.004Z,63291.66
2022-09-03T11:58:35.820Z,63291.66
2022-09-03T12:01:10.586Z,63291.66
2022-09-03T12:03:47.352Z,63291.66
2022-09-03T12:06:44.787Z,63291.66
2022-09-03T12:09:31.728Z,63291.66
2022-09-03T12:12:13.803Z,63291.66
2022-09-03T12:14:53.721Z,63291.66
2022-09-03T12:17:30.189Z,63291.66
2022-09-03T12:20:00.210Z,63291.66
2022-09-03T12:23:05.740Z,63291.66
2022-09-03T12:26:15.447Z,63291.66
2022-09-03T12:28:47.586Z,63291.66
2022-09-03T12:35:13.696Z,63291.66
2022-09-03T12:40:33.405Z,63291.66
2022-09-03T12:46:13.249Z,63291.66
2022-09-03T12:51:50.703Z,63291.66
2022-09-03T12:54:21.980Z,63291.66
2022-09-03T12:56:57.921Z,63291.66
2022-09-03T12:59:29.169Z,63291.66
2022-09-03T13:02:04.204Z,63291.66
2022-09-03T13:04:35.450Z,63291.66
2022-09-03T13:07:08.304Z,63291.66
2022-09-03T13:09:39.685Z,63291.66
2022-09-03T13:12:09.057Z,63291.66
2022-09-03T13:14:45.505Z,63291.66
2022-09-03T13:17:30.589Z,63291.66
2022-09-03T13:20:17.953Z,63291.66
2022-09-03T13:22:59.897Z,63291.66
2022-09-03T13:25:35.295Z,63291.66
2022-09-03T13:28:13.971Z,63291.66
2022-09-03T13:30:54.808Z,63291.66
2022-09-03T13:33:29.693Z,63291.66
2022-09-03T13:36:04.747Z,63291.66
2022-09-03T13:38:42.215Z,63291.66
2022-09-03T13:41:20.499Z,63291.66
2022-09-03T13:43:55.046Z,63291.66
2022-09-03T13:46:43.946Z,63291.66
2022-09-03T13:49:51.176Z,63291.66
2022-09-03T13:52:30.672Z,63291.66
2022-09-03T13:55:04.222Z,63291.66
2022-09-03T13:57:42.262Z,63291.66
2022-09-03T14:00:12.717Z,63291.66
2022-09-03T14:02:54.625Z,63291.66
2022-09-03T14:05:42.897Z,63291.66
2022-09-03T14:08:29.439Z,63291.66
2022-09-03T14:11:15.222Z,63291.66
2022-09-03T14:13:58.819Z,63291.66
2022-09-03T14:16:36.829Z,63291.66
2022-09-03T14:19:12.885Z,63291.66
2022-09-03T14:21:49.053Z,63291.66
2022-09-03T14:24:25.734Z,63291.66
2022-09-03T14:26:57.446Z,63291.66
2022-09-03T14:29:29.575Z,63291.66
2022-09-03T14:32:20.097Z,63291.66
2022-09-03T14:35:06.458Z,63291.66
2022-09-03T14:37:52.977Z,63291.66
2022-09-03T14:40:29.559Z,63291.66
2022-09-03T14:43:14.413Z,63291.66
2022-09-03T14:46:06.045Z,63291.66
2022-09-03T14:48:51.459Z,63291.66
2022-09-03T14:51:33.479Z,63291.66
2022-09-03T14:54:25.642Z,63291.66
2022-09-03T14:57:12.713Z,63291.66
2022-09-03T14:59:57.054Z,63291.66
2022-09-03T15:02:51.724Z,63291.66
2022-09-03T15:05:32.900Z,63291.66
2022-09-03T15:08:08.776Z,63291.66
2022-09-03T15:10:45.148Z,63291.66
2022-09-03T15:13:19.185Z,63291.66
2022-09-03T15:16:15.033Z,63291.66
2022-09-03T15:19:01.992Z,63291.66
2022-09-03T15:21:45.400Z,63291.66
2022-09-03T15:24:25.962Z,63291.66
2022-09-03T15:27:10.415Z,63291.66
2022-09-03T15:29:49.898Z,63291.66
2022-09-03T15:32:33.476Z,63291.66
2022-09-03T15:35:08.449Z,63291.66
2022-09-03T15:38:50.418Z,63291.66
2022-09-03T15:41:37.294Z,63291.66
2022-09-03T15:44:18.377Z,63291.66
2022-09-03T15:46:54.649Z,63291.66
2022-09-03T15:49:36.829Z,63291.66
2022-09-03T15:52:18.462Z,63291.66
2022-09-03T15:54:54.749Z,63291.66
2022-09-03T15:57:29.590Z,63291.66
2022-09-03T16:00:08.834Z,63291.66
2022-09-03T16:02:47.604Z,63291.66
2022-09-03T16:05:21.173Z,63291.66
2022-09-03T16:08:08.383Z,63291.66
2022-09-03T16:10:56.885Z,63291.66
2022-09-03T16:13:40.907Z,63291.66
2022-09-03T16:16:16.093Z,63291.66
2022-09-03T16:18:55.255Z,63291.66
2022-09-03T16:21:32.893Z,63291.66
2022-09-03T16:24:06.289Z,63291.66
2022-09-03T16:26:39.046Z,63291.66
2022-09-03T16:29:10.829Z,63291.66
2022-09-03T16:31:50.266Z,63291.66
2022-09-03T16:34:29.784Z,63291.66
2022-09-03T16:37:10.191Z,63291.66
2022-09-03T16:39:50.721Z,63291.66
2022-09-03T16:42:28.046Z,63291.66
2022-09-03T16:45:08.689Z,63291.66
2022-09-03T16:47:59.768Z,63291.66
2022-09-03T16:50:41.559Z,63291.66
2022-09-03T16:53:17.926Z,63291.66
2022-09-03T16:56:21.427Z,63291.66
2022-09-03T16:59:00.470Z,63291.66
2022-09-03T17:01:46.152Z,63291.66
2022-09-03T17:04:44.284Z,63291.66
2022-09-03T17:07:31.088Z,63291.66
2022-09-03T17:10:08.726Z,63291.66
2022-09-03T17:12:43.016Z,63291.66
2022-09-03T17:15:22.227Z,63291.66
2022-09-03T17:18:25.835Z,63291.66
2022-09-03T17:21:13.858Z,63291.66
2022-09-03T17:24:13.889Z,63291.66
2022-09-03T17:26:56.067Z,63291.66
2022-09-03T17:29:40.639Z,63291.66
2022-09-03T17:32:21.504Z,63291.66
2022-09-03T17:35:02.252Z,63291.66
2022-09-03T17:38:07.579Z,63291.66
2022-09-03T17:40:45.218Z,63291.66
2022-09-03T17:43:24.123Z,63291.66
2022-09-03T17:46:00.985Z,63291.66
2022-09-03T17:48:45.540Z,63291.66
2022-09-03T17:51:26.024Z,63291.66
2022-09-03T17:54:03.468Z,63291.66
2022-09-03T17:56:41.613Z,63291.66
2022-09-03T17:59:23.553Z,63291.66
2022-09-03T18:01:57.305Z,63291.66
2022-09-03T18:04:40.116Z,63291.66
2022-09-03T18:07:16.981Z,63291.66
2022-09-03T18:09:53.443Z,63291.66
2022-09-03T18:12:34.755Z,63291.66
2022-09-03T18:15:10.881Z,63291.66
2022-09-03T18:17:45.707Z,63291.66
2022-09-03T18:20:33.948Z,63291.66
2022-09-03T18:23:24.533Z,63291.66
2022-09-03T18:26:17.370Z,63291.66
2022-09-03T18:29:09.003Z,63291.66
2022-09-03T18:31:54.750Z,63291.66
2022-09-03T18:34:45.134Z,63291.66
2022-09-03T18:37:31.060Z,63291.66
2022-09-03T18:40:17.227Z,63291.66
2022-09-03T18:43:13.455Z,63291.66
2022-09-03T18:46:46.224Z,63291.66
2022-09-03T18:49:22.086Z,63291.66
2022-09-03T18:52:16.716Z,63291.66
2022-09-03T18:55:17.526Z,63291.66
2022-09-03T18:58:16.303Z,63291.66
2022-09-03T19:01:13.328Z,63291.66
2022-09-03T19:04:13.638Z,63291.66
2022-09-03T19:07:07.744Z,63291.66
2022-09-03T19:10:04.659Z,63291.66
2022-09-03T19:13:03.627Z,63291.66
2022-09-03T19:15:58.248Z,63291.66
2022-09-03T19:19:13.744Z,63291.66
2022-09-03T19:22:06.720Z,63291.66
2022-09-03T19:24:52.302Z,63291.66
2022-09-03T19:27:55.627Z,63291.66
2022-09-03T19:30:52.077Z,63291.66
2022-09-03T19:33:47.127Z,63291.66
2022-09-03T19:36:39.818Z,63291.66
2022-09-03T19:39:43.910Z,63291.66
2022-09-03T19:42:37.699Z,63291.66
2022-09-03T19:45:36.568Z,63291.66
2022-09-03T19:48:31.421Z,63291.66
2022-09-03T19:51:23.301Z,63291.66
2022-09-03T19:54:11.155Z,63291.66
2022-09-03T19:56:59.108Z,63291.66
2022-09-03T19:59:51.123Z,63291.66
2022-09-03T20:02:37.177Z,63291.66
2022-09-03T20:05:27.664Z,63291.66
2022-09-03T20:08:15.499Z,63291.66
2022-09-03T20:10:48.352Z,63291.66
2022-09-03T20:13:18.947Z,63291.66
2022-09-03T20:15:55.796Z,63291.66
2022-09-03T20:18:35.213Z,63291.66
2022-09-03T20:21:11.945Z,63291.66
2022-09-03T20:23:49.239Z,63291.66
2022-09-03T20:26:37.747Z,63291.66
2022-09-03T20:29:31.268Z,63291.66
2022-09-03T20:32:08.011Z,63291.66
2022-09-03T20:34:47.299Z,63291.66
2022-09-03T20:37:27.671Z,63291.66
2022-09-03T20:40:06.834Z,63291.66
2022-09-03T20:43:06.764Z,63291.66
2022-09-03T20:45:44.651Z,63291.66
2022-09-03T20:48:23.841Z,63291.66
2022-09-03T20:50:59.796Z,63291.66
2022-09-03T20:54:00.492Z,63291.66
2022-09-03T20:56:34.883Z,63291.66
2022-09-03T20:59:15.126Z,63291.66
2022-09-03T21:01:52.328Z,63291.66
2022-09-03T21:04:38.566Z,63291.66
2022-09-03T21:07:17.983Z,63291.66
2022-09-03T21:09:55.153Z,63291.66
2022-09-03T21:12:35.265Z,63291.66
2022-09-03T21:15:17.026Z,63291.66
2022-09-03T21:17:57.252Z,63291.66
2022-09-03T21:20:35.525Z,63291.66
2022-09-03T21:23:16.135Z,63291.66
2022-09-03T21:25:48.776Z,63291.66
2022-09-03T21:28:22.631Z,63291.66
2022-09-03T21:30:59.617Z,63291.66
2022-09-03T21:33:31.220Z,63291.66
2022-09-03T21:36:10.822Z,63291.66
2022-09-03T21:38:49.089Z,63291.66
2022-09-03T21:41:23.429Z,63291.66
2022-09-03T21:43:56.263Z,63291.66
2022-09-03T21:46:32.173Z,63291.66
2022-09-03T21:49:02.965Z,63291.66
2022-09-03T21:51:36.018Z,63291.66
2022-09-03T21:54:09.533Z,63291.66
2022-09-03T21:57:09.381Z,63291.66
2022-09-03T22:00:07.553Z,63291.66
2022-09-03T22:02:38.511Z,63291.66
2022-09-03T22:05:07.826Z,63291.66
2022-09-03T22:08:10.127Z,63291.66
2022-09-03T22:10:48.068Z,63291.66
2022-09-03T22:13:22.653Z,63291.66
2022-09-03T22:15:56.971Z,63291.66
2022-09-03T22:18:29.403Z,63291.66
2022-09-03T22:21:13.483Z,63291.66
2022-09-03T22:27:32.688Z,63291.66
2022-09-03T22:30:07.703Z,63291.66
2022-09-03T22:32:50.149Z,63291.66
2022-09-03T22:35:37.916Z,63291.66
2022-09-03T22:38:26.529Z,63291.66
2022-09-03T22:41:04.661Z,63291.66
2022-09-03T22:43:39.913Z,63291.66
2022-09-03T22:46:11.885Z,63291.66
2022-09-03T22:49:07.718Z,63291.66
2022-09-03T22:51:48.713Z,63291.66
2022-09-03T22:54:35.250Z,63291.66
2022-09-03T22:57:06.105Z,63291.66
2022-09-03T22:59:40.218Z,63291.66
2022-09-03T23:02:14.558Z,63291.66
2022-09-03T23:04:52.384Z,63291.66
2022-09-03T23:07:28.390Z,63291.66
2022-09-03T23:10:03.306Z,63291.66
2022-09-03T23:12:38.814Z,63291.66
2022-09-03T23:15:11.679Z,63291.66
2022-09-03T23:17:45.445Z,63291.66
2022-09-03T23:20:20.301Z,63291.66
2022-09-03T23:22:54.972Z,63291.66
2022-09-03T23:25:27.189Z,63291.66
2022-09-03T23:27:59.955Z,63291.66
2022-09-03T23:30:29.469Z,63291.66
2022-09-03T23:33:00.247Z,63291.66
2022-09-03T23:35:30.942Z,63291.66
2022-09-03T23:38:14.148Z,63291.66
2022-09-03T23:40:48.828Z,63291.66
2022-09-03T23:43:43.587Z,63291.66
2022-09-03T23:46:20.014Z,63291.66
2022-09-03T23:49:19.898Z,63291.66
2022-09-03T23:52:01.945Z,63291.66
2022-09-03T23:54:39.429Z,63291.66
2022-09-03T23:57:19.593Z,63291.66
